Time;durP1;ratioP1;P1;durP2;ratioP2;P2;SDS_P1;SDS_P2;PMS_P1;PMS_P2;Temp;Humidity;BMP_temperature;BMP_pressure;BME280_temperature;BME280_humidity;BME280_pressure;Samples;Min_cycle;Max_cycle;Signal;HPM_P1;HPM_P2
2023/01/02 00:00:12;;;;;;;5.07;2.40;;;17.20;99.90;;;;;;5056954;28;20029;-71
2023/01/02 00:02:38;;;;;;;5.50;2.42;;;17.20;99.90;;;;;;5056532;28;20120;-72
2023/01/02 00:05:05;;;;;;;5.57;2.42;;;17.20;99.90;;;;;;5056199;28;20111;-72
2023/01/02 00:07:30;;;;;;;4.50;2.22;;;17.20;99.90;;;;;;5057141;28;20037;-71
2023/01/02 00:09:56;;;;;;;3.92;2.15;;;17.20;99.90;;;;;;5056006;28;20041;-72
2023/01/02 00:12:22;;;;;;;4.55;2.30;;;17.20;99.90;;;;;;5056623;28;20123;-70
2023/01/02 00:14:48;;;;;;;6.40;2.40;;;17.20;99.90;;;;;;5055679;28;20041;-70
2023/01/02 00:17:16;;;;;;;4.15;2.08;;;17.20;99.90;;;;;;5055788;28;20044;-71
2023/01/02 00:19:42;;;;;;;5.60;2.20;;;17.20;99.90;;;;;;5064011;28;20296;-71
2023/01/02 00:22:07;;;;;;;3.55;2.03;;;17.20;99.90;;;;;;5075927;28;20035;-72
2023/01/02 00:24:33;;;;;;;3.78;2.10;;;17.20;99.90;;;;;;5076106;28;20315;-72
2023/01/02 00:26:59;;;;;;;6.75;2.22;;;17.10;99.90;;;;;;5074962;28;20039;-73
2023/01/02 00:29:25;;;;;;;6.30;2.33;;;17.20;99.90;;;;;;5076505;28;20480;-71
2023/01/02 00:31:51;;;;;;;4.90;2.05;;;17.10;99.90;;;;;;5075014;28;20466;-75
2023/01/02 00:34:17;;;;;;;3.97;2.08;;;17.10;99.90;;;;;;5075219;28;20032;-71
2023/01/02 00:36:43;;;;;;;4.18;2.05;;;17.10;99.90;;;;;;5075122;28;20029;-74
2023/01/02 00:39:09;;;;;;;3.80;2.10;;;17.10;99.90;;;;;;5075018;28;20039;-76
2023/01/02 00:41:35;;;;;;;5.65;2.10;;;17.20;99.90;;;;;;5075444;28;20373;-73
2023/01/02 00:44:01;;;;;;;3.58;1.90;;;17.10;99.90;;;;;;5056181;28;20075;-71
2023/01/02 00:46:27;;;;;;;5.35;1.70;;;17.10;99.90;;;;;;5056374;28;20059;-71
2023/01/02 00:48:53;;;;;;;3.63;1.80;;;17.10;99.90;;;;;;5055194;28;20060;-72
2023/01/02 00:51:19;;;;;;;4.80;1.77;;;17.10;99.90;;;;;;5055790;28;20331;-72
2023/01/02 00:53:45;;;;;;;3.28;1.65;;;17.10;99.90;;;;;;5037880;28;20060;-71
2023/01/02 00:56:11;;;;;;;3.63;1.70;;;17.10;99.90;;;;;;5055080;28;20037;-71
2023/01/02 00:58:38;;;;;;;3.85;1.60;;;17.10;99.90;;;;;;5056004;28;20025;-71
2023/01/02 01:01:04;;;;;;;4.43;1.73;;;17.10;99.90;;;;;;5056017;28;20048;-71
2023/01/02 01:03:30;;;;;;;3.95;1.75;;;17.10;99.90;;;;;;5054708;28;20033;-71
2023/01/02 01:05:56;;;;;;;3.47;1.70;;;17.10;99.90;;;;;;5053964;28;20045;-71
2023/01/02 01:08:23;;;;;;;4.00;1.80;;;17.10;99.90;;;;;;5055871;28;20037;-71
2023/01/02 01:10:50;;;;;;;4.43;1.92;;;17.10;99.90;;;;;;5054584;28;20328;-72
2023/01/02 01:13:16;;;;;;;4.30;1.75;;;17.10;99.90;;;;;;5055432;28;20048;-71
2023/01/02 01:15:43;;;;;;;5.00;1.80;;;17.10;99.90;;;;;;5055415;28;20029;-72
2023/01/02 01:18:09;;;;;;;3.40;1.42;;;17.10;99.90;;;;;;5054903;28;20032;-72
2023/01/02 01:20:38;;;;;;;3.42;1.60;;;17.10;99.90;;;;;;5055362;28;20051;-72
2023/01/02 01:23:04;;;;;;;4.07;1.77;;;17.10;99.90;;;;;;5055347;28;20127;-72
2023/01/02 01:25:30;;;;;;;4.38;1.90;;;17.10;99.90;;;;;;5055720;28;20485;-72
2023/01/02 01:27:56;;;;;;;3.63;1.77;;;17.10;99.90;;;;;;5055576;28;20037;-70
2023/01/02 01:30:22;;;;;;;3.22;1.52;;;17.10;99.90;;;;;;5054471;28;20089;-71
2023/01/02 01:32:47;;;;;;;3.55;1.60;;;17.10;99.90;;;;;;5054442;28;20037;-72
2023/01/02 01:35:13;;;;;;;3.25;1.60;;;17.10;99.90;;;;;;5072092;28;20043;-71
2023/01/02 01:37:39;;;;;;;3.85;1.73;;;17.10;99.90;;;;;;5075609;28;20039;-72
2023/01/02 01:40:06;;;;;;;2.55;1.40;;;17.10;99.90;;;;;;5075134;28;20043;-69
2023/01/02 01:42:33;;;;;;;2.72;1.50;;;17.00;99.90;;;;;;5067860;28;20025;-69
2023/01/02 01:44:59;;;;;;;5.97;1.55;;;17.10;99.90;;;;;;5054451;28;20120;-71
2023/01/02 01:47:43;;;;;;;4.00;1.65;;;17.10;99.90;;;;;;5037638;28;20125;-71
2023/01/02 01:50:17;;;;;;;4.30;1.40;;;17.00;99.90;;;;;;5054179;28;20506;-71
2023/01/02 01:53:15;;;;;;;2.50;1.30;;;17.10;99.90;;;;;;5055199;28;20332;-76
2023/01/02 01:56:03;;;;;;;2.88;1.30;;;17.10;99.90;;;;;;5055058;28;20040;-72
2023/01/02 01:58:38;;;;;;;3.17;1.67;;;17.10;99.90;;;;;;5087717;28;20029;-70
2023/01/02 02:01:04;;;;;;;2.58;1.38;;;17.00;99.90;;;;;;5055018;28;20033;-71
2023/01/02 02:03:33;;;;;;;2.70;1.40;;;17.00;99.90;;;;;;5054374;28;20495;-71
2023/01/02 02:06:00;;;;;;;2.83;1.30;;;17.00;99.90;;;;;;5054471;28;20041;-72
2023/01/02 02:08:34;;;;;;;2.13;1.33;;;17.00;99.90;;;;;;5054812;28;20025;-74
2023/01/02 02:11:01;;;;;;;3.25;1.65;;;17.00;99.90;;;;;;5052868;28;20374;-72
2023/01/02 02:13:30;;;;;;;2.50;1.40;;;17.00;99.90;;;;;;5054328;28;20033;-72
2023/01/02 02:16:16;;;;;;;2.60;1.30;;;17.00;99.90;;;;;;5056913;28;20032;-71
2023/01/02 02:18:58;;;;;;;2.58;1.27;;;17.00;99.90;;;;;;5058359;28;20029;-71
2023/01/02 02:21:30;;;;;;;4.20;1.80;;;17.00;99.90;;;;;;5058594;28;20132;-71
2023/01/02 02:24:30;;;;;;;3.65;1.23;;;17.00;99.90;;;;;;5057674;28;20515;-71
2023/01/02 02:27:32;;;;;;;4.18;1.20;;;17.00;99.90;;;;;;5058855;28;20036;-70
2023/01/02 02:30:17;;;;;;;3.70;1.33;;;17.00;99.90;;;;;;5057484;28;20254;-70
2023/01/02 02:33:03;;;;;;;2.17;1.40;;;17.00;99.90;;;;;;5055782;28;20037;-72
2023/01/02 02:36:12;;;;;;;2.63;1.25;;;17.00;99.90;;;;;;5057790;28;20037;-73
2023/01/02 02:38:57;;;;;;;3.20;1.40;;;17.00;99.90;;;;;;5043328;28;20037;-73
2023/01/02 02:41:47;;;;;;;2.97;1.45;;;16.90;99.90;;;;;;5057136;28;20025;-73
2023/01/02 02:44:27;;;;;;;2.58;1.30;;;17.00;99.90;;;;;;5057278;28;20113;-73
2023/01/02 02:47:08;;;;;;;2.30;1.30;;;17.00;99.90;;;;;;5057471;28;20033;-73
2023/01/02 02:49:55;;;;;;;3.08;1.20;;;17.00;99.90;;;;;;5057835;28;20331;-72
2023/01/02 02:52:33;;;;;;;2.15;1.15;;;17.00;99.90;;;;;;5058072;28;20021;-71
2023/01/02 02:55:18;;;;;;;2.25;1.13;;;17.00;99.90;;;;;;5057643;28;20068;-73
2023/01/02 02:57:45;;;;;;;2.63;1.30;;;17.00;99.90;;;;;;5056383;28;20025;-71
2023/01/02 03:00:18;;;;;;;2.55;1.50;;;17.00;99.90;;;;;;5057922;28;20411;-73
2023/01/02 03:02:44;;;;;;;3.00;1.30;;;17.00;99.90;;;;;;5057593;28;20021;-75
2023/01/02 03:05:15;;;;;;;2.00;1.30;;;17.00;99.90;;;;;;5056370;28;20040;-71
2023/01/02 03:07:50;;;;;;;3.05;1.50;;;17.00;99.90;;;;;;5057465;28;20025;-71
2023/01/02 03:10:29;;;;;;;2.63;1.30;;;17.00;99.90;;;;;;5057265;28;20029;-72
2023/01/02 03:13:14;;;;;;;2.20;1.15;;;17.00;99.90;;;;;;5057145;28;20033;-72
2023/01/02 03:15:58;;;;;;;4.00;1.52;;;17.00;99.90;;;;;;5057402;28;20040;-72
2023/01/02 03:18:30;;;;;;;2.60;1.40;;;17.00;99.90;;;;;;5056614;28;20029;-72
2023/01/02 03:21:35;;;;;;;2.30;1.30;;;17.00;99.90;;;;;;5056708;28;20033;-72
2023/01/02 03:24:09;;;;;;;4.10;1.33;;;17.00;99.90;;;;;;5054203;28;20029;-73
2023/01/02 03:26:38;;;;;;;2.70;1.20;;;16.90;99.90;;;;;;5056809;28;20416;-72
2023/01/02 03:29:14;;;;;;;3.13;1.40;;;17.00;99.90;;;;;;5055889;28;20432;-71
2023/01/02 03:31:42;;;;;;;2.97;1.33;;;17.00;99.90;;;;;;5056188;28;20035;-71
2023/01/02 03:34:16;;;;;;;5.43;1.65;;;16.90;99.90;;;;;;5056000;28;20451;-71
2023/01/02 03:36:46;;;;;;;3.17;1.73;;;17.00;99.90;;;;;;5056752;28;20328;-72
2023/01/02 03:39:19;;;;;;;2.22;1.30;;;16.90;99.90;;;;;;5056572;28;20313;-70
2023/01/02 03:42:10;;;;;;;2.65;1.48;;;16.90;99.90;;;;;;5056844;28;20044;-70
2023/01/02 03:44:50;;;;;;;3.22;1.45;;;17.00;99.90;;;;;;5057116;28;20325;-70
2023/01/02 03:47:38;;;;;;;2.67;1.58;;;16.90;99.90;;;;;;5056294;28;20028;-71
2023/01/02 03:50:14;;;;;;;2.88;1.80;;;17.00;99.90;;;;;;5055751;28;20112;-70
2023/01/02 03:52:40;;;;;;;2.83;1.40;;;16.90;99.90;;;;;;5056743;28;20036;-72
2023/01/02 03:55:07;;;;;;;2.40;1.45;;;16.90;99.90;;;;;;5056069;28;20081;-71
2023/01/02 03:57:38;;;;;;;2.95;1.45;;;16.90;99.90;;;;;;5072393;28;20033;-71
2023/01/02 04:00:06;;;;;;;3.50;1.40;;;16.90;99.90;;;;;;5076276;28;20028;-73
2023/01/02 04:02:57;;;;;;;2.17;1.50;;;16.90;99.90;;;;;;5076569;28;20032;-71
2023/01/02 04:05:33;;;;;;;3.05;1.50;;;16.90;99.90;;;;;;5075763;28;20115;-70
2023/01/02 04:08:01;;;;;;;;;;;16.90;99.90;;;;;;5076609;28;20064;-72
2023/01/02 04:10:29;;;;;;;3.15;1.52;;;16.90;99.90;;;;;;5058878;28;19939;-71
2023/01/02 04:13:00;;;;;;;2.58;1.50;;;16.90;99.90;;;;;;5075983;28;20415;-73
2023/01/02 04:15:29;;;;;;;3.25;1.75;;;16.90;99.90;;;;;;5076224;28;20029;-73
2023/01/02 04:18:21;;;;;;;2.88;1.52;;;16.90;99.90;;;;;;5075652;28;20060;-72
2023/01/02 04:20:52;;;;;;;6.47;1.75;;;16.90;99.90;;;;;;5059015;28;20502;-71
2023/01/02 04:23:35;;;;;;;3.40;1.40;;;16.90;99.90;;;;;;5075006;28;20062;-72
2023/01/02 04:26:13;;;;;;;3.15;1.40;;;16.90;99.90;;;;;;5075765;28;20371;-72
2023/01/02 04:28:39;;;;;;;2.72;1.65;;;16.90;99.90;;;;;;5075984;28;20033;-70
2023/01/02 04:31:27;;;;;;;2.60;1.40;;;16.80;99.90;;;;;;5075725;28;20063;-71
2023/01/02 04:33:59;;;;;;;3.30;1.70;;;16.90;99.90;;;;;;5074951;28;20037;-72
2023/01/02 04:36:25;;;;;;;3.75;1.50;;;16.90;99.90;;;;;;5075509;28;20025;-72
2023/01/02 04:38:51;;;;;;;3.65;1.50;;;16.90;99.90;;;;;;5074905;28;20442;-72
2023/01/02 04:41:25;;;;;;;4.25;1.73;;;16.90;99.90;;;;;;5075526;28;20025;-72
2023/01/02 04:43:55;;;;;;;2.63;1.55;;;16.90;99.90;;;;;;5057028;28;20033;-72
2023/01/02 04:46:23;;;;;;;4.03;1.60;;;16.80;99.90;;;;;;5055715;28;20057;-73
2023/01/02 04:48:48;;;;;;;5.18;1.48;;;16.80;99.90;;;;;;5067006;28;20104;-72
2023/01/02 04:51:15;;;;;;;2.63;1.50;;;16.80;99.90;;;;;;5073438;28;20119;-72
2023/01/02 04:53:41;;;;;;;4.88;1.60;;;16.80;99.90;;;;;;5073606;28;20334;-73
2023/01/02 04:56:08;;;;;;;3.10;1.60;;;16.80;99.90;;;;;;5074720;28;20020;-72
2023/01/02 04:58:34;;;;;;;3.13;1.60;;;16.80;99.90;;;;;;5074967;28;20089;-72
2023/01/02 05:01:00;;;;;;;7.45;1.63;;;16.80;99.90;;;;;;5074656;28;20013;-74
2023/01/02 05:03:26;;;;;;;2.60;1.55;;;16.80;99.90;;;;;;5070074;28;20036;-74
2023/01/02 05:05:59;;;;;;;2.90;1.70;;;16.80;99.90;;;;;;5072854;28;20024;-72
2023/01/02 05:08:28;;;;;;;3.40;1.70;;;16.90;99.90;;;;;;5072443;28;20032;-64
2023/01/02 05:10:54;;;;;;;3.30;1.80;;;16.90;99.90;;;;;;5075328;28;20025;-78
2023/01/02 05:13:20;;;;;;;3.70;1.85;;;17.00;99.90;;;;;;5075381;28;20112;-80
2023/01/02 05:15:53;;;;;;;5.20;1.38;;;17.20;99.90;;;;;;5075548;28;20029;-56
2023/01/02 05:18:19;;;;;;;5.28;1.30;;;17.40;99.90;;;;;;5072024;28;20441;-46
2023/01/02 05:20:45;;;;;;;3.63;1.40;;;17.80;99.90;;;;;;5074395;28;20043;-45
2023/01/02 05:25:55;;;;;;;6.53;1.45;;;18.40;99.90;;;;;;5073082;28;20103;-45
2023/01/02 05:28:21;;;;;;;5.60;1.58;;;18.70;99.90;;;;;;5075405;28;20137;-47
2023/01/02 05:30:48;;;;;;;2.92;1.33;;;18.90;99.90;;;;;;5075664;28;20035;-45
2023/01/02 05:33:14;;;;;;;5.43;1.20;;;19.10;99.90;;;;;;5074615;28;20025;-45
2023/01/02 05:35:40;;;;;;;4.22;1.30;;;19.20;99.90;;;;;;5075261;28;20078;-48
2023/01/02 05:38:06;;;;;;;7.07;1.35;;;19.40;99.90;;;;;;5057828;28;20032;-47
2023/01/02 05:40:32;;;;;;;1.98;1.30;;;19.50;99.90;;;;;;5075528;28;20044;-46
2023/01/02 05:42:59;;;;;;;4.57;1.10;;;19.60;99.90;;;;;;5075154;28;20025;-54
2023/01/02 05:45:25;;;;;;;4.18;1.23;;;19.70;99.90;;;;;;5075573;28;20106;-45
2023/01/02 05:47:51;;;;;;;1.70;1.00;;;19.70;99.90;;;;;;5075100;28;20029;-47
2023/01/02 05:50:17;;;;;;;3.88;1.50;;;19.80;99.90;;;;;;5073880;28;20032;-46
2023/01/02 05:52:43;;;;;;;3.88;1.38;;;19.90;99.90;;;;;;5075322;28;20062;-47
2023/01/02 05:55:09;;;;;;;2.67;1.30;;;19.90;99.90;;;;;;5074760;28;20139;-58
2023/01/02 05:57:35;;;;;;;7.22;1.15;;;19.90;99.90;;;;;;5075531;28;20408;-57
2023/01/02 06:00:02;;;;;;;3.63;1.00;;;20.00;99.90;;;;;;5074378;28;20025;-56
2023/01/02 06:02:27;;;;;;;2.97;1.30;;;20.10;99.90;;;;;;5075109;28;20395;-56
2023/01/02 06:04:53;;;;;;;2.13;1.10;;;20.10;99.90;;;;;;5073592;28;20052;-55
2023/01/02 06:07:19;;;;;;;3.42;1.52;;;20.20;99.90;;;;;;5074118;28;20044;-56
2023/01/02 06:09:45;;;;;;;3.20;1.33;;;20.20;99.90;;;;;;5074273;28;20037;-55
2023/01/02 06:12:11;;;;;;;3.28;1.10;;;20.30;99.90;;;;;;5069257;28;20029;-43
2023/01/02 06:14:37;;;;;;;3.53;1.10;;;20.30;99.90;;;;;;5071230;28;20086;-45
2023/01/02 06:17:03;;;;;;;5.40;1.40;;;20.30;99.90;;;;;;5072069;28;20028;-45
2023/01/02 06:19:29;;;;;;;7.53;1.48;;;20.40;99.90;;;;;;5072458;28;20032;-46
2023/01/02 06:21:55;;;;;;;4.45;1.10;;;20.40;99.90;;;;;;5071665;28;20445;-46
2023/01/02 06:24:20;;;;;;;4.35;1.05;;;20.50;99.90;;;;;;5072094;28;20044;-46
2023/01/02 06:26:46;;;;;;;2.47;1.00;;;20.50;99.90;;;;;;5072628;28;20059;-45
2023/01/02 06:29:12;;;;;;;4.22;0.93;;;20.60;99.90;;;;;;5069980;28;20041;-45
2023/01/02 06:31:38;;;;;;;4.10;0.98;;;20.60;99.90;;;;;;5072301;28;20691;-45
2023/01/02 06:34:04;;;;;;;7.28;1.20;;;20.60;99.90;;;;;;5071192;28;20376;-46
2023/01/02 06:36:32;;;;;;;1.95;1.02;;;20.60;99.90;;;;;;5068247;28;20112;-45
2023/01/02 06:38:58;;;;;;;2.45;1.10;;;20.60;99.90;;;;;;5057056;28;20505;-48
2023/01/02 06:41:24;;;;;;;1.85;0.80;;;20.70;99.90;;;;;;5084641;28;20037;-45
2023/01/02 06:43:51;;;;;;;4.25;1.00;;;20.70;99.90;;;;;;5052185;28;20424;-49
2023/01/02 06:46:20;;;;;;;4.10;0.90;;;20.70;99.90;;;;;;5052181;28;20036;-47
2023/01/02 06:48:47;;;;;;;3.03;0.90;;;20.70;99.90;;;;;;5067111;28;20032;-46
2023/01/02 06:51:15;;;;;;;2.47;1.00;;;20.70;99.90;;;;;;5071703;28;20428;-46
2023/01/02 06:53:42;;;;;;;2.35;1.10;;;20.70;99.90;;;;;;5071137;28;20048;-46
2023/01/02 06:56:09;;;;;;;2.50;0.80;;;20.80;99.90;;;;;;5070391;28;20025;-48
2023/01/02 07:05:39;;;;;;;;;;;20.40;99.90;;;;;;5091197;27;1291381;-47
2023/01/02 07:08:05;;;;;;;2.60;0.77;;;20.40;99.90;;;;;;5130812;28;19997;-50
2023/01/02 07:10:31;;;;;;;3.85;0.95;;;20.40;99.90;;;;;;5129080;28;20681;-46
2023/01/02 07:12:57;;;;;;;2.63;0.80;;;20.50;99.90;;;;;;5129359;28;20030;-45
2023/01/02 07:15:23;;;;;;;5.53;1.00;;;20.50;99.90;;;;;;5130690;28;20031;-44
2023/01/02 07:17:49;;;;;;;1.85;0.77;;;20.50;99.90;;;;;;5130940;28;20445;-44
2023/01/02 07:22:06;;;;;;;5.53;0.95;;;20.50;99.90;;;;;;5172455;27;20296;-46
2023/01/02 07:25:13;;;;;;;5.85;1.05;;;20.50;99.90;;;;;;5090221;28;20720;-45
2023/01/02 07:27:39;;;;;;;4.85;0.85;;;20.50;99.90;;;;;;5090219;28;20036;-41
